createdAt,value
2018-12-19T00:05:13.585Z,16.60
2018-12-19T00:10:51.061Z,17.20
2018-12-19T00:13:31.525Z,16.30
2018-12-19T00:19:00.664Z,16.10
2018-12-19T00:27:42.584Z,14.80
2018-12-19T00:30:20.458Z,14.90
2018-12-19T00:33:11.273Z,15.87
2018-12-19T00:35:58.633Z,14.43
2018-12-19T00:38:36.877Z,15.57
2018-12-19T00:41:17.290Z,15.83
2018-12-19T00:46:55.699Z,15.10
2018-12-19T00:49:37.472Z,14.97
2018-12-19T00:52:17.391Z,15.20
2018-12-19T00:58:01.001Z,15.07
2018-12-19T01:15:35.302Z,16.13
2018-12-19T01:18:16.389Z,16.73
2018-12-19T01:35:55.270Z,16.23
2018-12-19T01:38:44.750Z,17.23
2018-12-19T01:41:22.479Z,16.07
2018-12-19T01:50:23.640Z,14.77
2018-12-19T01:53:01.520Z,15.20
2018-12-19T01:55:51.894Z,15.87
2018-12-19T01:58:36.527Z,15.23
2018-12-19T02:01:17.288Z,14.57
2018-12-19T02:03:56.147Z,15.03
2018-12-19T02:06:32.149Z,16.57
2018-12-19T02:09:28.745Z,15.60
2018-12-19T02:12:11.070Z,15.20
2018-12-19T02:14:44.970Z,15.10
2018-12-19T02:23:43.522Z,16.27
2018-12-19T02:29:32.724Z,15.67
2018-12-19T02:32:26.797Z,16.03
2018-12-19T02:41:16.771Z,16.00
2018-12-19T02:50:03.525Z,15.07
2018-12-19T02:58:48.833Z,14.50
2018-12-19T03:01:39.096Z,14.50
2018-12-19T03:04:19.825Z,14.43
2018-12-19T03:10:02.585Z,12.60
2018-12-19T03:12:42.995Z,14.10
2018-12-19T03:15:28.175Z,14.23
2018-12-19T03:18:16.663Z,15.00
2018-12-19T03:20:56.582Z,13.40
2018-12-19T03:23:45.098Z,13.03
2018-12-19T03:26:27.447Z,12.93
2018-12-19T03:29:16.482Z,14.20
2018-12-19T03:31:58.359Z,14.40
2018-12-19T03:40:32.396Z,13.70
2018-12-19T03:43:20.481Z,13.90
2018-12-19T03:45:59.675Z,11.17
2018-12-19T03:48:46.397Z,11.13
2018-12-19T03:51:30.931Z,12.70
2018-12-19T03:54:05.261Z,12.03
2018-12-19T03:59:41.172Z,12.20
2018-12-19T04:02:26.132Z,12.83
2018-12-19T04:08:18.805Z,13.87
2018-12-19T04:14:01.612Z,13.00
2018-12-19T04:16:48.025Z,12.50
2018-12-19T04:19:37.447Z,13.33
2018-12-19T04:25:24.536Z,12.67
2018-12-19T04:43:28.295Z,12.23
2018-12-19T04:46:18.623Z,13.67
2018-12-19T04:54:52.318Z,12.10
2018-12-19T04:57:35.875Z,11.90
2018-12-19T05:00:27.706Z,12.73
2018-12-19T05:06:20.946Z,13.63
2018-12-19T05:09:11.956Z,12.33
2018-12-19T05:12:00.290Z,13.00
2018-12-19T05:14:48.258Z,12.70
2018-12-19T05:23:42.382Z,14.03
2018-12-19T05:29:32.785Z,12.73
2018-12-19T05:35:21.826Z,12.17
2018-12-19T05:44:02.042Z,12.30
2018-12-19T05:55:45.780Z,12.47
2018-12-19T05:58:33.861Z,13.60
2018-12-19T06:16:14.264Z,13.90
2018-12-19T06:31:19.696Z,14.07
2018-12-19T06:34:10.613Z,13.20
2018-12-19T06:39:55.534Z,13.20
2018-12-19T06:42:29.727Z,14.23
2018-12-19T06:45:06.426Z,13.17
2018-12-19T06:47:42.184Z,13.70
2018-12-19T06:50:23.673Z,14.17
2018-12-19T06:52:57.966Z,12.87
2018-12-19T06:58:42.496Z,13.00
2018-12-19T07:01:22.321Z,15.73
2018-12-19T07:04:02.635Z,16.10
2018-12-19T07:06:40.103Z,16.37
2018-12-19T07:09:15.422Z,17.03
2018-12-19T07:11:49.257Z,16.20
2018-12-19T07:14:26.171Z,15.23
2018-12-19T07:17:06.465Z,25.80
2018-12-19T07:19:37.891Z,17.03
2018-12-19T07:22:23.811Z,15.40
2018-12-19T07:25:04.371Z,20.83
2018-12-19T07:27:42.341Z,19.00
2018-12-19T07:30:16.825Z,19.63
2018-12-19T07:33:08.006Z,18.40
2018-12-19T07:35:48.083Z,17.93
2018-12-19T07:38:23.519Z,16.93
2018-12-19T07:40:55.253Z,18.40
2018-12-19T07:43:36.134Z,18.73
2018-12-19T07:46:19.768Z,20.10
2018-12-19T07:48:51.796Z,19.03
2018-12-19T07:51:25.075Z,19.60
2018-12-19T07:54:00.237Z,17.90
2018-12-19T07:56:40.409Z,16.07
2018-12-19T07:59:25.044Z,15.80
2018-12-19T08:01:56.870Z,15.87
2018-12-19T08:04:26.577Z,15.47
2018-12-19T08:06:57.950Z,17.07
2018-12-19T08:09:35.300Z,16.73
2018-12-19T08:12:06.588Z,16.40
2018-12-19T08:14:47.049Z,17.80
2018-12-19T08:17:22.276Z,16.30
2018-12-19T08:20:08.564Z,17.30
2018-12-19T08:22:42.319Z,16.93
2018-12-19T08:25:20.259Z,16.90
2018-12-19T08:27:51.442Z,17.00
2018-12-19T08:30:31.056Z,17.23
2018-12-19T08:33:12.835Z,16.53
2018-12-19T08:35:46.128Z,17.40
2018-12-19T08:38:21.131Z,16.33
2018-12-19T08:40:50.417Z,16.30
2018-12-19T08:43:30.648Z,17.30
2018-12-19T08:46:14.421Z,16.77
2018-12-19T08:48:44.588Z,18.07
2018-12-19T08:51:18.555Z,17.07
2018-12-19T08:53:56.233Z,15.87
2018-12-19T08:56:43.466Z,15.03
2018-12-19T08:59:17.211Z,18.23
2018-12-19T09:01:46.485Z,16.00
2018-12-19T09:04:25.768Z,14.83
2018-12-19T09:06:55.145Z,17.23
2018-12-19T09:09:25.827Z,17.00
2018-12-19T09:11:59.136Z,14.67
2018-12-19T09:17:44.980Z,15.83
2018-12-19T09:20:18.811Z,15.17
2018-12-19T09:25:52.963Z,15.50
2018-12-19T09:28:28.536Z,16.10
2018-12-19T09:31:00.199Z,15.20
2018-12-19T09:33:31.648Z,17.87
2018-12-19T09:36:11.365Z,17.93
2018-12-19T09:38:48.772Z,16.07
2018-12-19T09:41:20.115Z,17.13
2018-12-19T09:43:57.452Z,17.00
2018-12-19T09:46:32.395Z,17.77
2018-12-19T09:49:12.252Z,16.80
2018-12-19T09:51:42.048Z,22.47
2018-12-19T09:54:17.983Z,22.23
2018-12-19T09:56:55.187Z,21.30
2018-12-19T09:59:26.375Z,20.50
2018-12-19T10:02:06.252Z,21.10
2018-12-19T10:04:43.915Z,20.90
2018-12-19T10:07:21.831Z,19.97
2018-12-19T10:09:59.655Z,21.57
2018-12-19T10:12:43.865Z,21.17
2018-12-19T10:18:16.841Z,22.53
2018-12-19T10:20:52.234Z,22.47
2018-12-19T10:23:27.736Z,21.30
2018-12-19T10:26:10.876Z,22.43
2018-12-19T10:28:44.113Z,21.60
2018-12-19T10:31:17.924Z,21.10
2018-12-19T10:33:52.757Z,23.20
2018-12-19T10:36:34.098Z,20.80
2018-12-19T10:39:16.971Z,20.97
2018-12-19T10:41:46.593Z,21.40
2018-12-19T10:44:20.825Z,21.50
2018-12-19T10:46:55.722Z,22.30
2018-12-19T10:49:33.739Z,22.10
2018-12-19T10:52:05.355Z,22.07
2018-12-19T10:54:38.541Z,22.63
2018-12-19T10:57:14.501Z,22.40
2018-12-19T10:59:48.133Z,23.23
2018-12-19T11:02:19.329Z,23.13
2018-12-19T11:04:55.465Z,23.27
2018-12-19T11:07:29.146Z,22.70
2018-12-19T11:10:02.902Z,22.50
2018-12-19T11:12:34.298Z,22.23
2018-12-19T11:15:10.429Z,22.17
2018-12-19T11:17:44.452Z,21.10
2018-12-19T11:20:18.051Z,21.20
2018-12-19T11:22:51.803Z,22.07
2018-12-19T11:25:32.618Z,22.23
2018-12-19T11:28:12.635Z,22.60
2018-12-19T11:30:53.348Z,25.87
2018-12-19T11:33:26.728Z,25.50
2018-12-19T11:36:01.479Z,27.97
2018-12-19T11:38:39.226Z,28.50
2018-12-19T11:41:12.683Z,28.00
2018-12-19T11:43:48.537Z,26.40
2018-12-19T11:46:22.493Z,27.07
2018-12-19T11:48:54.710Z,28.40
2018-12-19T11:51:28.694Z,28.37
2018-12-19T11:54:02.761Z,28.90
2018-12-19T11:56:34.710Z,28.40
2018-12-19T11:59:16.520Z,29.57
2018-12-19T12:07:53.233Z,30.97
2018-12-19T12:10:31.081Z,30.20
2018-12-19T12:13:05.703Z,30.60
2018-12-19T12:15:41.899Z,28.43
2018-12-19T12:18:22.425Z,30.30
2018-12-19T12:20:55.752Z,29.60
2018-12-19T12:23:33.664Z,28.20
2018-12-19T12:26:11.633Z,27.47
2018-12-19T12:28:45.315Z,27.40
2018-12-19T12:31:21.655Z,25.97
2018-12-19T12:33:52.814Z,26.17
2018-12-19T12:36:33.564Z,23.10
2018-12-19T12:39:08.349Z,23.00
2018-12-19T12:41:52.316Z,23.43
2018-12-19T12:47:36.094Z,22.10
2018-12-19T12:50:17.743Z,21.50
2018-12-19T12:52:55.260Z,23.90
2018-12-19T12:55:31.658Z,24.17
2018-12-19T12:58:13.903Z,24.03
2018-12-19T13:00:52.761Z,23.10
2018-12-19T13:06:37.478Z,26.50
2018-12-19T13:09:28.295Z,25.30
2018-12-19T13:12:05.146Z,23.17
2018-12-19T13:14:38.879Z,24.83
2018-12-19T13:17:18.562Z,23.40
2018-12-19T13:19:55.104Z,27.67
2018-12-19T13:28:09.893Z,27.30
2018-12-19T13:30:48.940Z,26.80
2018-12-19T13:36:13.595Z,32.07
2018-12-19T13:38:53.937Z,31.40
2018-12-19T13:41:34.124Z,28.03
2018-12-19T13:44:12.294Z,29.77
2018-12-19T13:46:59.356Z,24.43
2018-12-19T13:49:38.798Z,27.83
2018-12-19T13:52:20.711Z,27.77
2018-12-19T13:55:00.492Z,28.93
2018-12-19T13:57:33.699Z,26.20
2018-12-19T14:00:14.783Z,28.63
2018-12-19T14:02:54.553Z,27.70
2018-12-19T14:05:38.455Z,28.20
2018-12-19T14:14:22.012Z,28.53
2018-12-19T14:17:03.081Z,26.10
2018-12-19T14:19:44.334Z,27.50
2018-12-19T14:22:21.042Z,28.40
2018-12-19T14:24:54.651Z,29.83
2018-12-19T14:27:34.353Z,27.93
2018-12-19T14:30:06.483Z,29.63
2018-12-19T14:38:24.123Z,29.17
2018-12-19T14:41:00.203Z,30.63
2018-12-19T14:43:41.933Z,28.30
2018-12-19T14:46:19.729Z,29.20
2018-12-19T14:48:54.250Z,31.70
2018-12-19T14:51:30.338Z,29.50
2018-12-19T14:54:04.997Z,30.60
2018-12-19T14:56:51.664Z,27.53
2018-12-19T14:59:31.574Z,26.00
2018-12-19T15:02:03.045Z,27.93
2018-12-19T15:04:38.839Z,29.00
2018-12-19T15:07:22.344Z,27.80
2018-12-19T15:09:58.486Z,28.20
2018-12-19T15:12:38.967Z,24.17
2018-12-19T15:15:14.702Z,26.80
2018-12-19T15:17:53.117Z,27.40
2018-12-19T15:23:29.032Z,28.63
2018-12-19T15:26:10.616Z,32.10
2018-12-19T15:28:45.096Z,30.43
2018-12-19T15:31:20.045Z,31.20
2018-12-19T15:34:02.161Z,29.27
2018-12-19T15:36:37.042Z,29.67
2018-12-19T15:39:15.095Z,27.00
2018-12-19T15:41:53.093Z,29.73
2018-12-19T15:47:34.582Z,32.87
2018-12-19T15:50:07.569Z,33.43
2018-12-19T15:52:38.377Z,30.57
2018-12-19T15:55:18.020Z,32.13
2018-12-19T15:57:49.544Z,32.67
2018-12-19T16:00:26.921Z,34.97
2018-12-19T16:03:00.823Z,32.23
2018-12-19T16:05:34.441Z,34.57
2018-12-19T16:08:09.281Z,34.50
2018-12-19T16:10:45.662Z,33.13
2018-12-19T16:19:16.838Z,37.63
2018-12-19T16:21:59.681Z,37.60
2018-12-19T16:24:36.451Z,39.50
2018-12-19T16:27:14.140Z,37.33
2018-12-19T16:29:54.362Z,37.27
2018-12-19T16:32:27.672Z,34.17
2018-12-19T16:35:02.588Z,36.20
2018-12-19T16:37:38.185Z,35.57
2018-12-19T16:40:18.169Z,34.93
2018-12-19T16:42:55.381Z,34.47
2018-12-19T16:45:33.310Z,36.67
2018-12-19T16:48:13.355Z,36.00
2018-12-19T16:50:53.704Z,34.80
2018-12-19T16:53:25.531Z,37.30
2018-12-19T16:56:12.112Z,36.23
2018-12-19T16:58:47.648Z,35.40
2018-12-19T17:01:28.203Z,35.80
2018-12-19T17:04:03.121Z,39.27
2018-12-19T17:06:38.890Z,39.33
2018-12-19T17:09:12.643Z,38.07
2018-12-19T17:11:46.448Z,32.27
2018-12-19T17:14:21.301Z,31.63
2018-12-19T17:16:55.303Z,31.70
2018-12-19T17:22:19.545Z,37.20
2018-12-19T17:27:48.604Z,36.70
2018-12-19T17:30:23.288Z,37.17
2018-12-19T17:35:43.132Z,35.87
2018-12-19T17:38:29.425Z,35.83
2018-12-19T17:41:08.690Z,36.20
2018-12-19T17:43:48.794Z,34.77
2018-12-19T17:52:15.440Z,37.07
2018-12-19T17:54:55.987Z,35.67
2018-12-19T17:57:35.612Z,33.13
2018-12-19T18:00:14.107Z,31.33
2018-12-19T18:02:50.609Z,33.00
2018-12-19T18:05:25.655Z,30.63
2018-12-19T18:08:03.446Z,31.67
2018-12-19T18:10:41.331Z,32.23
2018-12-19T18:13:20.623Z,33.93
2018-12-19T18:16:03.214Z,34.23
2018-12-19T18:18:38.763Z,34.27
2018-12-19T18:21:12.789Z,33.73
2018-12-19T18:26:37.162Z,34.60
2018-12-19T18:34:40.036Z,30.17
2018-12-19T18:37:17.940Z,31.70
2018-12-19T18:42:38.626Z,32.30
2018-12-19T18:45:12.741Z,31.83
2018-12-19T18:47:48.836Z,30.43
2018-12-19T18:50:23.997Z,32.00
2018-12-19T18:52:57.724Z,30.50
2018-12-19T18:58:24.510Z,31.00
2018-12-19T19:01:00.619Z,32.10
2018-12-19T19:03:35.001Z,31.17
2018-12-19T19:06:14.537Z,32.17
2018-12-19T19:11:34.209Z,38.80
2018-12-19T19:14:14.411Z,37.10
2018-12-19T19:16:48.806Z,34.07
2018-12-19T19:19:24.527Z,34.53
2018-12-19T19:22:02.093Z,34.50
2018-12-19T19:24:39.921Z,31.97
2018-12-19T19:27:20.314Z,34.50
2018-12-19T19:30:07.479Z,32.97
2018-12-19T19:32:47.132Z,30.30
2018-12-19T19:35:26.872Z,32.53
2018-12-19T19:38:06.502Z,29.57
2018-12-19T19:40:42.163Z,29.33
2018-12-19T19:43:16.262Z,31.60
2018-12-19T19:45:50.384Z,30.17
2018-12-19T19:48:24.008Z,32.73
2018-12-19T19:50:59.271Z,36.60
2018-12-19T19:53:36.794Z,35.90
2018-12-19T19:56:21.415Z,28.30
2018-12-19T19:59:06.138Z,32.30
2018-12-19T20:07:22.903Z,35.60
2018-12-19T20:12:49.725Z,31.60
2018-12-19T20:15:35.699Z,31.77
2018-12-19T20:18:16.700Z,31.37
2018-12-19T20:23:32.659Z,30.67
2018-12-19T20:26:20.306Z,30.73
2018-12-19T20:28:53.559Z,33.50
2018-12-19T20:31:25.801Z,35.00
2018-12-19T20:34:00.959Z,33.27
2018-12-19T20:39:26.198Z,34.67
2018-12-19T20:41:58.467Z,32.80
2018-12-19T20:44:32.448Z,33.30
2018-12-19T20:47:07.347Z,31.67
2018-12-19T20:49:47.215Z,32.80
2018-12-19T20:52:20.448Z,30.13
2018-12-19T20:55:00.666Z,31.00
2018-12-19T20:57:33.955Z,28.37
2018-12-19T21:00:07.574Z,31.60
2018-12-19T21:02:38.759Z,28.40
2018-12-19T21:05:14.174Z,31.73
2018-12-19T21:07:47.846Z,27.57
2018-12-19T21:10:22.800Z,26.80
2018-12-19T21:12:56.498Z,27.63
2018-12-19T21:15:31.389Z,29.27
2018-12-19T21:18:11.679Z,28.80
2018-12-19T21:20:46.976Z,29.87
2018-12-19T21:23:21.661Z,28.10
2018-12-19T21:25:56.332Z,27.33
2018-12-19T21:28:36.417Z,26.67
2018-12-19T21:31:11.589Z,27.40
2018-12-19T21:33:49.187Z,26.30
2018-12-19T21:36:24.145Z,30.47
2018-12-19T21:38:55.327Z,26.27
2018-12-19T21:41:28.493Z,28.30
2018-12-19T21:44:03.270Z,24.97
2018-12-19T21:46:38.815Z,27.20
2018-12-19T21:49:14.709Z,29.23
2018-12-19T21:51:51.602Z,31.83
2018-12-19T21:54:32.119Z,29.00
2018-12-19T21:57:10.119Z,28.33
2018-12-19T22:02:35.386Z,32.10
2018-12-19T22:05:12.642Z,33.57
2018-12-19T22:07:47.454Z,31.00
2018-12-19T22:28:27.054Z,20.30
2018-12-19T22:31:00.935Z,23.40
2018-12-19T22:33:45.271Z,21.43
2018-12-19T22:36:21.051Z,20.50
2018-12-19T22:41:58.237Z,22.10
2018-12-19T22:44:32.933Z,23.97
2018-12-19T22:47:04.448Z,24.20
2018-12-19T22:49:37.622Z,21.27
2018-12-19T22:52:11.395Z,22.00
2018-12-19T22:54:47.390Z,21.73
2018-12-19T22:57:27.364Z,21.40
2018-12-19T23:00:01.852Z,20.67
2018-12-19T23:02:42.152Z,20.87
2018-12-19T23:05:52.547Z,22.77
2018-12-19T23:08:30.504Z,21.27
2018-12-19T23:11:08.371Z,22.23
2018-12-19T23:13:41.979Z,19.97
2018-12-19T23:16:17.205Z,21.10
2018-12-19T23:18:57.100Z,21.57
2018-12-19T23:21:31.454Z,21.30
2018-12-19T23:24:09.038Z,21.50
2018-12-19T23:26:55.817Z,21.47
2018-12-19T23:29:31.281Z,21.77
2018-12-19T23:32:05.042Z,23.70
2018-12-19T23:34:47.807Z,22.67
2018-12-19T23:37:26.355Z,24.87
2018-12-19T23:39:56.025Z,22.23
2018-12-19T23:42:29.190Z,21.43
2018-12-19T23:45:06.944Z,23.30
2018-12-19T23:47:42.742Z,23.70
2018-12-19T23:50:17.766Z,23.70
2018-12-19T23:52:49.410Z,22.60
2018-12-19T23:55:20.275Z,20.80
2018-12-19T23:57:55.455Z,21.53
